createdAt,value
2019-03-15T00:00:55.232Z,4.80
2019-03-15T00:01:55.321Z,5.50
2019-03-15T00:02:55.410Z,6.40
2019-03-15T00:03:55.498Z,7.60
2019-03-15T00:04:55.589Z,8.20
2019-03-15T00:05:55.683Z,6.20
2019-03-15T00:06:55.769Z,5.70
2019-03-15T00:07:55.859Z,4.70
2019-03-15T00:08:55.949Z,4.30
2019-03-15T00:09:56.039Z,5.80
2019-03-15T00:10:56.126Z,4.40
2019-03-15T00:11:56.215Z,8.90
2019-03-15T00:12:56.296Z,5.00
2019-03-15T00:13:56.382Z,7.30
2019-03-15T00:14:56.474Z,4.20
2019-03-15T00:15:56.561Z,5.30
2019-03-15T00:16:56.648Z,4.60
2019-03-15T00:17:56.742Z,5.30
2019-03-15T00:18:56.828Z,7.50
2019-03-15T00:19:56.916Z,5.30
2019-03-15T00:20:57.009Z,5.40
2019-03-15T00:21:57.097Z,6.40
2019-03-15T00:22:57.184Z,4.80
2019-03-15T00:23:57.271Z,6.50
2019-03-15T00:24:57.361Z,5.30
2019-03-15T00:25:57.450Z,6.60
2019-03-15T00:26:57.543Z,7.60
2019-03-15T00:27:57.628Z,5.60
2019-03-15T00:28:57.725Z,7.00
2019-03-15T00:29:57.812Z,5.80
2019-03-15T00:30:57.899Z,6.70
2019-03-15T00:31:57.994Z,7.80
2019-03-15T00:32:58.580Z,6.20
2019-03-15T00:33:58.173Z,7.50
2019-03-15T00:34:58.262Z,8.10
2019-03-15T00:35:58.352Z,6.70
2019-03-15T00:36:58.441Z,5.00
2019-03-15T00:37:58.576Z,5.20
2019-03-15T00:38:58.615Z,5.70
2019-03-15T00:39:58.701Z,6.90
2019-03-15T00:40:58.790Z,7.20
2019-03-15T00:41:58.878Z,6.80
2019-03-15T00:42:58.967Z,7.00
2019-03-15T00:43:59.050Z,9.00
2019-03-15T00:44:59.146Z,6.70
2019-03-15T00:45:59.234Z,6.40
2019-03-15T00:46:59.325Z,8.30
2019-03-15T00:47:59.412Z,6.60
2019-03-15T00:48:59.502Z,7.80
2019-03-15T00:49:59.591Z,8.60
2019-03-15T00:50:59.670Z,6.40
2019-03-15T00:51:59.761Z,7.50
2019-03-15T00:52:59.852Z,6.10
2019-03-15T00:53:59.941Z,11.00
2019-03-15T00:55:00.034Z,5.20
2019-03-15T00:56:00.142Z,9.90
2019-03-15T00:57:00.229Z,8.90
2019-03-15T00:58:00.318Z,6.90
2019-03-15T00:59:00.407Z,7.20
2019-03-15T01:00:00.497Z,6.00
2019-03-15T01:01:00.589Z,7.00
2019-03-15T01:02:00.677Z,7.20
2019-03-15T01:03:00.763Z,7.90
2019-03-15T01:04:00.852Z,9.00
2019-03-15T01:05:00.933Z,9.40
2019-03-15T01:06:01.040Z,9.40
2019-03-15T01:07:01.129Z,7.60
2019-03-15T01:08:01.217Z,6.50
2019-03-15T01:09:01.295Z,6.60
2019-03-15T01:10:01.381Z,6.40
2019-03-15T01:11:01.471Z,7.40
2019-03-15T01:12:01.560Z,5.90
2019-03-15T01:13:01.651Z,7.50
2019-03-15T01:14:01.736Z,6.90
2019-03-15T01:15:01.825Z,7.90
2019-03-15T01:16:01.917Z,11.00
2019-03-15T01:17:02.003Z,6.60
2019-03-15T01:18:02.093Z,5.80
2019-03-15T01:19:02.183Z,7.00
2019-03-15T01:20:02.848Z,6.20
2019-03-15T01:21:02.385Z,6.40
2019-03-15T01:22:02.475Z,10.60
2019-03-15T01:23:02.562Z,10.40
2019-03-15T01:24:02.657Z,7.00
2019-03-15T01:25:02.746Z,9.60
2019-03-15T01:26:02.837Z,7.50
2019-03-15T01:27:02.926Z,4.90
2019-03-15T01:28:03.035Z,6.60
2019-03-15T01:29:03.099Z,8.40
2019-03-15T01:30:03.189Z,6.40
2019-03-15T01:31:03.280Z,9.10
2019-03-15T01:32:03.365Z,7.60
2019-03-15T01:33:03.457Z,7.00
2019-03-15T01:34:03.546Z,9.00
2019-03-15T01:35:03.636Z,7.40
2019-03-15T01:36:03.725Z,5.30
2019-03-15T01:37:03.820Z,6.80
2019-03-15T01:38:03.914Z,7.60
2019-03-15T01:39:04.001Z,9.00
2019-03-15T01:40:04.090Z,7.00
2019-03-15T01:41:04.351Z,7.70
2019-03-15T01:42:04.276Z,6.40
2019-03-15T01:43:04.366Z,9.90
2019-03-15T01:44:04.447Z,7.90
2019-03-15T01:45:04.538Z,7.00
2019-03-15T01:46:04.629Z,8.20
2019-03-15T01:47:04.722Z,9.10
2019-03-15T01:48:05.088Z,8.20
2019-03-15T01:49:04.895Z,6.00
2019-03-15T01:50:04.991Z,9.70
2019-03-15T01:51:05.067Z,8.10
2019-03-15T01:52:05.159Z,5.60
2019-03-15T01:53:05.245Z,8.40
2019-03-15T01:54:05.338Z,11.40
2019-03-15T01:55:05.428Z,10.00
2019-03-15T01:56:05.512Z,7.60
2019-03-15T01:57:05.606Z,7.90
2019-03-15T01:58:05.693Z,8.10
2019-03-15T01:59:05.781Z,7.10
2019-03-15T02:00:05.874Z,8.20
2019-03-15T02:01:05.964Z,10.10
2019-03-15T02:02:06.051Z,13.60
2019-03-15T02:03:06.140Z,8.00
2019-03-15T02:04:06.229Z,9.50
2019-03-15T02:05:06.318Z,7.10
2019-03-15T02:06:06.414Z,9.70
2019-03-15T02:07:06.502Z,7.60
2019-03-15T02:08:06.598Z,9.40
2019-03-15T02:09:09.326Z,12.20
2019-03-15T02:10:06.773Z,7.30
2019-03-15T02:11:06.880Z,8.50
2019-03-15T02:12:06.963Z,8.10
2019-03-15T02:13:07.062Z,8.50
2019-03-15T02:14:07.152Z,12.20
2019-03-15T02:15:07.241Z,10.00
2019-03-15T02:16:07.334Z,9.90
2019-03-15T02:17:07.425Z,12.30
2019-03-15T02:18:07.510Z,9.90
2019-03-15T02:19:07.598Z,9.80
2019-03-15T02:20:07.688Z,11.90
2019-03-15T02:21:07.777Z,9.90
2019-03-15T02:22:08.440Z,11.80
2019-03-15T02:23:07.958Z,9.90
2019-03-15T02:24:08.049Z,8.20
2019-03-15T02:25:08.197Z,10.10
2019-03-15T02:26:08.228Z,9.90
2019-03-15T02:27:08.319Z,11.80
2019-03-15T02:28:08.406Z,11.10
2019-03-15T02:29:08.495Z,8.40
2019-03-15T02:30:08.655Z,13.20
2019-03-15T02:31:08.674Z,10.30
2019-03-15T02:32:08.763Z,9.80
2019-03-15T02:33:08.850Z,12.30
2019-03-15T02:34:08.947Z,11.60
2019-03-15T02:35:09.015Z,13.30
2019-03-15T02:36:09.102Z,11.60
2019-03-15T02:37:09.193Z,11.90
2019-03-15T02:38:09.281Z,11.50
2019-03-15T02:39:09.370Z,11.70
2019-03-15T02:40:09.469Z,14.10
2019-03-15T02:41:09.545Z,14.20
2019-03-15T02:42:09.639Z,10.10
2019-03-15T02:43:10.020Z,10.30
2019-03-15T02:44:09.817Z,10.60
2019-03-15T02:45:09.906Z,13.30
2019-03-15T02:46:09.996Z,11.10
2019-03-15T02:47:10.085Z,11.50
2019-03-15T02:48:10.174Z,11.40
2019-03-15T02:49:10.265Z,10.10
2019-03-15T02:50:10.354Z,13.30
2019-03-15T02:51:10.442Z,11.20
2019-03-15T02:52:10.522Z,9.70
2019-03-15T02:53:10.615Z,10.00
2019-03-15T02:54:10.703Z,14.50
2019-03-15T02:55:10.794Z,9.10
2019-03-15T02:56:10.880Z,14.70
2019-03-15T02:57:10.973Z,12.30
2019-03-15T02:58:11.041Z,14.60
2019-03-15T02:59:11.145Z,11.30
2019-03-15T03:00:11.219Z,11.60
2019-03-15T03:01:11.304Z,11.30
2019-03-15T03:02:11.392Z,10.20
2019-03-15T03:03:11.482Z,11.50
2019-03-15T03:04:11.571Z,11.10
2019-03-15T03:05:11.661Z,11.10
2019-03-15T03:06:11.766Z,12.70
2019-03-15T03:07:11.844Z,12.00
2019-03-15T03:08:11.932Z,11.20
2019-03-15T03:09:12.027Z,9.50
2019-03-15T03:10:12.119Z,12.40
2019-03-15T03:11:12.209Z,11.40
2019-03-15T03:12:12.298Z,12.40
2019-03-15T03:13:12.389Z,9.90
2019-03-15T03:14:12.475Z,14.10
2019-03-15T03:15:12.564Z,15.80
2019-03-15T03:16:12.651Z,15.10
2019-03-15T03:17:13.209Z,12.70
2019-03-15T03:18:12.825Z,13.30
2019-03-15T03:19:12.917Z,10.40
2019-03-15T03:20:13.037Z,11.10
2019-03-15T03:21:13.275Z,11.90
2019-03-15T03:22:13.179Z,15.70
2019-03-15T03:23:13.277Z,14.10
2019-03-15T03:24:13.357Z,13.00
2019-03-15T03:25:13.449Z,12.40
2019-03-15T03:26:13.720Z,13.00
2019-03-15T03:27:13.624Z,13.00
2019-03-15T03:28:13.702Z,13.30
2019-03-15T03:29:13.808Z,12.90
2019-03-15T03:30:16.445Z,11.40
2019-03-15T03:31:15.631Z,16.60
2019-03-15T03:32:14.519Z,14.30
2019-03-15T03:33:14.384Z,11.40
2019-03-15T03:34:14.275Z,15.60
2019-03-15T03:35:14.352Z,12.60
2019-03-15T03:36:14.432Z,15.40
2019-03-15T03:37:14.516Z,13.40
2019-03-15T03:38:14.604Z,12.40
2019-03-15T03:39:14.696Z,17.00
2019-03-15T03:40:14.788Z,19.80
2019-03-15T03:41:14.876Z,12.20
2019-03-15T03:42:14.972Z,17.00
2019-03-15T03:43:15.069Z,15.80
2019-03-15T03:44:15.161Z,14.60
2019-03-15T03:45:15.247Z,15.80
2019-03-15T03:46:15.334Z,16.20
2019-03-15T03:47:15.420Z,13.20
2019-03-15T03:48:15.995Z,15.70
2019-03-15T03:49:15.615Z,13.20
2019-03-15T03:50:15.687Z,14.90
2019-03-15T03:51:15.776Z,13.80
2019-03-15T03:52:15.866Z,13.80
2019-03-15T03:53:15.948Z,17.60
2019-03-15T03:54:16.034Z,15.00
2019-03-15T03:55:16.124Z,12.00
2019-03-15T03:56:16.311Z,16.50
2019-03-15T03:57:16.302Z,18.80
2019-03-15T03:58:16.391Z,12.60
2019-03-15T03:59:16.531Z,16.60
2019-03-15T04:00:16.575Z,19.40
2019-03-15T04:01:16.664Z,15.30
2019-03-15T04:02:16.754Z,13.00
2019-03-15T04:03:16.843Z,16.70
2019-03-15T04:04:16.954Z,16.50
2019-03-15T04:05:17.023Z,17.30
2019-03-15T04:06:17.115Z,15.40
2019-03-15T04:07:17.203Z,17.00
2019-03-15T04:08:17.293Z,17.30
2019-03-15T04:09:17.383Z,17.80
2019-03-15T04:10:17.470Z,11.90
2019-03-15T04:11:17.560Z,15.10
2019-03-15T04:12:17.652Z,16.60
2019-03-15T04:13:17.740Z,14.10
2019-03-15T04:14:17.832Z,18.90
2019-03-15T04:15:17.927Z,16.70
2019-03-15T04:16:18.011Z,18.50
2019-03-15T04:17:18.102Z,16.60
2019-03-15T04:18:18.187Z,14.40
2019-03-15T04:19:18.272Z,14.30
2019-03-15T04:20:18.366Z,13.50
2019-03-15T04:21:18.453Z,15.20
2019-03-15T04:22:18.535Z,12.80
2019-03-15T04:23:18.625Z,18.10
2019-03-15T04:24:18.716Z,17.10
2019-03-15T04:25:18.807Z,17.70
2019-03-15T04:26:18.904Z,17.40
2019-03-15T04:27:19.000Z,18.00
2019-03-15T04:28:19.139Z,17.60
2019-03-15T04:29:19.172Z,14.90
2019-03-15T04:30:19.283Z,14.40
2019-03-15T04:31:19.371Z,15.50
2019-03-15T04:32:19.465Z,14.00
2019-03-15T04:33:19.555Z,12.60
2019-03-15T04:34:19.639Z,16.30
2019-03-15T04:35:19.730Z,17.80
2019-03-15T04:36:19.823Z,19.70
2019-03-15T04:37:22.695Z,16.20
2019-03-15T04:38:19.989Z,15.60
2019-03-15T04:39:20.099Z,15.70
2019-03-15T04:40:20.168Z,16.50
2019-03-15T04:41:20.263Z,13.30
2019-03-15T04:42:20.347Z,14.90
2019-03-15T04:43:20.431Z,19.40
2019-03-15T04:44:20.519Z,19.00
2019-03-15T04:45:20.612Z,16.70
2019-03-15T04:46:20.703Z,16.40
2019-03-15T04:47:20.792Z,18.50
2019-03-15T04:48:20.882Z,18.80
2019-03-15T04:49:20.966Z,14.70
2019-03-15T04:50:21.046Z,17.30
2019-03-15T04:51:21.138Z,16.50
2019-03-15T04:52:21.227Z,16.00
2019-03-15T04:53:21.317Z,11.70
2019-03-15T04:54:21.407Z,15.20
2019-03-15T04:55:21.500Z,14.40
2019-03-15T04:56:21.587Z,15.30
2019-03-15T04:57:21.678Z,20.50
2019-03-15T04:58:21.766Z,16.60
2019-03-15T04:59:24.010Z,17.70
2019-03-15T05:00:21.941Z,13.20
2019-03-15T05:01:22.038Z,20.20
2019-03-15T05:02:22.128Z,20.40
2019-03-15T05:03:22.218Z,17.20
2019-03-15T05:04:22.311Z,16.50
2019-03-15T05:05:22.398Z,12.70
2019-03-15T05:06:22.490Z,18.00
2019-03-15T05:07:22.578Z,17.70
2019-03-15T05:08:22.666Z,17.10
2019-03-15T05:09:22.754Z,15.70
2019-03-15T05:10:22.844Z,17.30
2019-03-15T05:11:22.948Z,15.20
2019-03-15T05:12:23.058Z,14.50
2019-03-15T05:13:23.154Z,15.10
2019-03-15T05:14:23.263Z,19.20
2019-03-15T05:15:23.447Z,14.90
2019-03-15T05:16:23.443Z,17.90
2019-03-15T05:17:23.534Z,14.20
2019-03-15T05:18:23.619Z,16.90
2019-03-15T05:19:23.709Z,14.30
2019-03-15T05:20:23.806Z,16.00
2019-03-15T05:21:23.892Z,16.60
2019-03-15T05:22:23.978Z,13.10
2019-03-15T05:23:24.072Z,14.30
2019-03-15T05:24:24.158Z,16.70
2019-03-15T05:25:24.247Z,17.40
2019-03-15T05:26:24.339Z,16.40
2019-03-15T05:27:24.422Z,15.30
2019-03-15T05:28:24.624Z,15.60
2019-03-15T05:29:24.606Z,21.10
2019-03-15T05:30:24.694Z,18.50
2019-03-15T05:31:24.781Z,14.20
2019-03-15T05:32:24.872Z,17.00
2019-03-15T05:33:24.984Z,17.00
2019-03-15T05:34:25.053Z,13.30
2019-03-15T05:35:25.139Z,17.70
2019-03-15T05:36:25.229Z,12.50
2019-03-15T05:37:25.321Z,13.60
2019-03-15T05:38:25.409Z,13.20
2019-03-15T05:39:25.513Z,18.80
2019-03-15T05:40:25.602Z,12.90
2019-03-15T05:41:25.693Z,13.90
2019-03-15T05:42:25.785Z,13.90
2019-03-15T05:43:25.880Z,17.10
2019-03-15T05:44:25.975Z,16.10
2019-03-15T05:45:26.063Z,14.00
2019-03-15T05:46:26.151Z,15.00
2019-03-15T05:47:26.238Z,14.60
2019-03-15T05:48:26.329Z,12.00
2019-03-15T05:49:26.434Z,15.50
2019-03-15T05:50:26.521Z,13.60
2019-03-15T05:51:26.598Z,16.10
2019-03-15T05:52:26.691Z,16.10
2019-03-15T05:53:26.779Z,16.50
2019-03-15T05:54:26.863Z,10.40
2019-03-15T05:55:26.952Z,13.40
2019-03-15T05:56:27.028Z,14.70
2019-03-15T05:57:27.122Z,15.30
2019-03-15T05:58:27.208Z,15.10
2019-03-15T05:59:27.298Z,14.90
2019-03-15T06:00:27.388Z,14.10
2019-03-15T06:01:27.478Z,14.60
2019-03-15T06:02:27.568Z,13.30
2019-03-15T06:03:27.661Z,15.50
2019-03-15T06:04:27.758Z,13.90
2019-03-15T06:05:27.912Z,15.40
2019-03-15T06:06:27.926Z,14.30
2019-03-15T06:07:28.014Z,17.10
2019-03-15T06:08:28.106Z,15.40
2019-03-15T06:09:28.193Z,16.90
2019-03-15T06:10:28.292Z,17.30
2019-03-15T06:11:28.376Z,12.20
2019-03-15T06:12:28.482Z,13.10
2019-03-15T06:13:28.559Z,11.90
2019-03-15T06:14:28.648Z,14.20
2019-03-15T06:15:28.739Z,13.20
2019-03-15T06:16:28.831Z,9.40
2019-03-15T06:17:28.955Z,14.70
2019-03-15T06:18:29.011Z,15.70
2019-03-15T06:19:29.091Z,14.70
2019-03-15T06:20:29.184Z,13.90
2019-03-15T06:21:29.262Z,13.70
2019-03-15T06:22:29.355Z,14.40
2019-03-15T06:23:29.446Z,19.60
2019-03-15T06:24:29.541Z,13.10
2019-03-15T06:25:29.626Z,15.40
2019-03-15T06:26:29.719Z,13.70
2019-03-15T06:27:31.159Z,11.80
2019-03-15T06:28:29.900Z,14.10
2019-03-15T06:29:30.005Z,13.50
2019-03-15T06:30:30.095Z,10.80
2019-03-15T06:31:30.189Z,10.30
2019-03-15T06:32:30.282Z,10.40
2019-03-15T06:33:30.366Z,15.80
2019-03-15T06:34:30.466Z,12.80
2019-03-15T06:35:30.551Z,14.10
2019-03-15T06:36:30.644Z,15.20
2019-03-15T06:37:30.729Z,12.50
2019-03-15T06:38:33.450Z,9.90
2019-03-15T06:39:30.913Z,11.50
2019-03-15T06:40:31.837Z,11.20
2019-03-15T06:41:31.111Z,14.20
2019-03-15T06:42:31.209Z,13.10
2019-03-15T06:43:31.293Z,10.30
2019-03-15T06:44:31.384Z,13.30
2019-03-15T06:45:32.025Z,15.30
2019-03-15T06:46:31.566Z,14.00
2019-03-15T06:47:31.657Z,12.50
2019-03-15T06:48:31.747Z,12.90
2019-03-15T06:49:31.846Z,11.30
2019-03-15T06:50:31.931Z,17.20
2019-03-15T06:51:32.021Z,24.20
2019-03-15T06:52:32.106Z,13.50
2019-03-15T06:53:32.196Z,13.90
2019-03-15T06:54:32.290Z,9.90
2019-03-15T06:55:32.382Z,12.40
2019-03-15T06:56:32.467Z,11.90
2019-03-15T06:57:32.571Z,13.50
2019-03-15T06:58:32.648Z,13.00
2019-03-15T06:59:32.742Z,12.80
2019-03-15T07:00:32.832Z,18.30
2019-03-15T07:01:32.925Z,12.30
2019-03-15T07:02:33.013Z,16.10
2019-03-15T07:03:33.141Z,11.50
2019-03-15T07:04:33.234Z,13.50
2019-03-15T07:05:33.323Z,12.00
2019-03-15T07:06:33.417Z,9.90
2019-03-15T07:07:33.547Z,10.50
2019-03-15T07:08:33.602Z,13.80
2019-03-15T07:09:33.699Z,12.60
2019-03-15T07:10:33.785Z,8.90
2019-03-15T07:11:33.880Z,11.20
2019-03-15T07:12:33.973Z,12.90
2019-03-15T07:13:34.070Z,13.70
2019-03-15T07:14:34.150Z,10.50
2019-03-15T07:15:34.246Z,11.70
2019-03-15T07:16:34.337Z,14.90
2019-03-15T07:17:34.431Z,11.70
2019-03-15T07:18:35.495Z,10.40
2019-03-15T07:19:34.626Z,13.90
2019-03-15T07:20:34.717Z,10.90
2019-03-15T07:21:36.830Z,10.50
2019-03-15T07:22:34.900Z,11.10
2019-03-15T07:23:35.047Z,11.30
2019-03-15T07:24:35.091Z,12.70
2019-03-15T07:25:35.168Z,14.20
2019-03-15T07:26:35.269Z,9.70
2019-03-15T07:27:35.364Z,14.50
2019-03-15T07:28:35.453Z,10.10
2019-03-15T07:29:35.544Z,11.00
2019-03-15T07:30:35.633Z,9.60
2019-03-15T07:31:35.721Z,11.50
2019-03-15T07:32:35.811Z,9.60
2019-03-15T07:33:35.922Z,12.00
2019-03-15T07:34:36.012Z,9.20
2019-03-15T07:35:36.998Z,10.00
2019-03-15T07:36:37.399Z,10.50
2019-03-15T07:37:36.317Z,11.40
2019-03-15T07:38:36.408Z,12.90
2019-03-15T07:39:36.503Z,12.70
2019-03-15T07:40:36.595Z,13.40
2019-03-15T07:41:36.688Z,11.60
2019-03-15T07:42:36.780Z,13.40
2019-03-15T07:43:36.875Z,10.00
2019-03-15T07:44:36.960Z,10.40
2019-03-15T07:45:37.080Z,12.10
2019-03-15T07:46:37.133Z,12.50
2019-03-15T07:47:37.222Z,9.80
2019-03-15T07:48:37.317Z,14.10
2019-03-15T07:49:37.408Z,12.10
2019-03-15T07:50:37.498Z,10.80
2019-03-15T07:51:37.591Z,12.30
2019-03-15T07:52:37.683Z,11.90
2019-03-15T07:53:37.776Z,12.20
2019-03-15T07:54:38.599Z,9.90
2019-03-15T07:55:37.963Z,10.70
2019-03-15T07:56:38.055Z,14.00
2019-03-15T07:57:38.146Z,12.80
2019-03-15T07:58:38.238Z,15.50
2019-03-15T07:59:38.332Z,15.40
2019-03-15T08:00:38.423Z,10.30
2019-03-15T08:01:38.508Z,13.40
2019-03-15T08:02:38.610Z,10.80
2019-03-15T08:03:38.704Z,12.90
2019-03-15T08:04:38.793Z,11.00
2019-03-15T08:05:38.895Z,11.50
2019-03-15T08:06:38.982Z,10.50
2019-03-15T08:07:44.745Z,12.10
2019-03-15T08:08:39.250Z,9.40
2019-03-15T08:09:39.250Z,13.00
2019-03-15T08:10:39.368Z,10.60
2019-03-15T08:11:39.437Z,11.60
2019-03-15T08:12:39.531Z,13.50
2019-03-15T08:13:39.620Z,11.30
2019-03-15T08:14:39.735Z,11.90
2019-03-15T08:15:39.828Z,12.90
2019-03-15T08:16:39.921Z,8.80
2019-03-15T08:17:40.019Z,14.00
2019-03-15T08:18:40.105Z,10.50
2019-03-15T08:19:40.199Z,12.50
2019-03-15T08:20:40.290Z,10.20
2019-03-15T08:21:40.386Z,12.40
2019-03-15T08:22:40.591Z,15.00
2019-03-15T08:23:40.571Z,12.90
2019-03-15T08:24:51.012Z,13.10
2019-03-15T08:25:40.763Z,11.40
2019-03-15T08:26:40.852Z,12.20
2019-03-15T08:27:40.951Z,10.10
2019-03-15T08:28:41.071Z,10.70
2019-03-15T08:29:41.135Z,11.90
2019-03-15T08:30:41.228Z,15.30
2019-03-15T08:31:41.318Z,11.70
2019-03-15T08:32:43.292Z,10.20
2019-03-15T08:33:41.510Z,10.30
2019-03-15T08:34:41.593Z,15.30
2019-03-15T08:35:41.692Z,12.60
2019-03-15T08:36:41.779Z,11.50
2019-03-15T08:37:41.879Z,14.70
2019-03-15T08:38:47.250Z,11.80
2019-03-15T08:39:42.056Z,11.90
2019-03-15T08:40:42.148Z,10.70
2019-03-15T08:41:42.237Z,13.50
2019-03-15T08:42:42.327Z,8.20
2019-03-15T08:43:42.741Z,12.10
2019-03-15T08:44:42.517Z,13.60
2019-03-15T08:45:42.608Z,10.30
2019-03-15T08:46:42.698Z,10.00
2019-03-15T08:47:42.798Z,9.30
2019-03-15T08:48:42.878Z,10.50
2019-03-15T08:49:42.982Z,8.30
2019-03-15T08:50:43.070Z,11.10
2019-03-15T08:51:43.165Z,10.20
2019-03-15T08:52:43.253Z,12.60
2019-03-15T08:53:43.338Z,8.30
2019-03-15T08:54:46.474Z,9.10
2019-03-15T08:55:43.526Z,11.10
2019-03-15T08:56:43.625Z,10.70
2019-03-15T08:57:43.721Z,9.20
2019-03-15T08:58:43.808Z,8.80
2019-03-15T08:59:56.634Z,8.10
2019-03-15T09:00:44.016Z,9.30
2019-03-15T09:01:44.111Z,8.60
2019-03-15T09:02:44.219Z,7.70
2019-03-15T09:03:44.291Z,8.30
2019-03-15T09:04:44.386Z,8.40
2019-03-15T09:05:44.474Z,10.40
2019-03-15T09:06:44.566Z,9.70
2019-03-15T09:07:44.674Z,8.70
2019-03-15T09:08:44.766Z,8.90
2019-03-15T09:09:44.854Z,9.60
2019-03-15T09:10:44.945Z,7.90
2019-03-15T09:11:45.036Z,8.30
2019-03-15T09:12:45.145Z,13.90
2019-03-15T09:13:45.236Z,7.90
2019-03-15T09:14:45.325Z,8.40
2019-03-15T09:15:45.417Z,10.00
2019-03-15T09:16:45.509Z,9.30
2019-03-15T09:17:45.606Z,8.40
2019-03-15T09:18:45.695Z,6.50
2019-03-15T09:19:45.811Z,8.10
2019-03-15T09:20:45.882Z,7.80
2019-03-15T09:21:45.976Z,8.70
2019-03-15T09:22:46.064Z,8.40
2019-03-15T09:23:46.158Z,8.00
2019-03-15T09:24:46.254Z,8.80
2019-03-15T09:25:46.368Z,9.50
2019-03-15T09:26:46.451Z,8.10
2019-03-15T09:27:46.546Z,7.40
2019-03-15T09:28:46.646Z,7.50
2019-03-15T09:29:46.735Z,8.20
2019-03-15T09:30:46.826Z,9.50
2019-03-15T09:31:48.365Z,7.30
2019-03-15T09:32:47.002Z,5.90
2019-03-15T09:33:47.124Z,9.60
2019-03-15T09:34:47.191Z,10.30
2019-03-15T09:35:47.286Z,7.00
2019-03-15T09:36:50.493Z,6.00
2019-03-15T09:37:47.957Z,7.90
2019-03-15T09:38:47.562Z,6.50
2019-03-15T09:39:47.658Z,5.10
2019-03-15T09:40:47.748Z,9.30
2019-03-15T09:41:47.843Z,6.80
2019-03-15T09:42:47.936Z,9.20
2019-03-15T09:43:48.032Z,6.50
2019-03-15T09:47:16.142Z,6.10
2019-03-15T09:48:10.221Z,5.70
2019-03-15T09:49:09.197Z,5.50
2019-03-15T09:50:20.990Z,5.50
2019-03-15T09:51:09.394Z,6.30
2019-03-15T09:52:09.484Z,7.30
2019-03-15T09:53:09.565Z,4.50
2019-03-15T09:54:09.659Z,6.50
2019-03-15T09:55:09.749Z,3.10
2019-03-15T09:56:09.841Z,7.40
2019-03-15T09:57:09.927Z,5.90
2019-03-15T09:58:10.024Z,6.60
2019-03-15T09:59:10.111Z,5.30
2019-03-15T10:00:10.202Z,7.10
2019-03-15T10:01:10.538Z,5.30
2019-03-15T10:02:10.378Z,3.60
2019-03-15T10:03:21.575Z,3.70
2019-03-15T10:04:10.561Z,6.50
2019-03-15T10:05:11.751Z,3.90
2019-03-15T10:06:15.804Z,3.80
2019-03-15T10:07:10.915Z,6.50
2019-03-15T10:08:11.098Z,4.60
2019-03-15T10:09:11.073Z,7.30
2019-03-15T10:10:13.884Z,4.10
2019-03-15T10:11:11.238Z,6.00
2019-03-15T10:12:11.328Z,6.10
2019-03-15T10:13:11.423Z,5.20
2019-03-15T10:14:11.510Z,4.60
2019-03-15T10:15:11.597Z,4.60
2019-03-15T10:16:11.686Z,3.80
2019-03-15T10:17:11.776Z,4.20
2019-03-15T10:18:11.869Z,5.50
2019-03-15T10:19:11.968Z,4.70
2019-03-15T10:20:12.655Z,4.50
2019-03-15T10:21:12.156Z,5.70
2019-03-15T10:22:12.245Z,6.20
2019-03-15T10:23:12.336Z,6.50
2019-03-15T10:24:15.495Z,4.50
2019-03-15T10:25:12.518Z,5.40
2019-03-15T10:26:14.980Z,5.90
2019-03-15T10:27:12.748Z,3.40
2019-03-15T10:28:12.804Z,5.40
2019-03-15T10:29:15.642Z,7.00
2019-03-15T10:30:12.976Z,3.40
2019-03-15T10:31:13.055Z,5.70
2019-03-15T10:32:13.146Z,3.70
2019-03-15T10:33:13.257Z,4.80
2019-03-15T10:34:13.351Z,3.50
2019-03-15T10:35:13.405Z,4.40
2019-03-15T10:36:13.496Z,4.10
2019-03-15T10:37:13.587Z,2.70
2019-03-15T10:38:16.557Z,4.20
2019-03-15T10:39:13.773Z,4.00
2019-03-15T10:40:13.855Z,4.70
2019-03-15T10:41:13.954Z,3.90
2019-03-15T10:42:14.049Z,4.80
2019-03-15T10:43:14.126Z,4.50
2019-03-15T10:44:14.236Z,4.30
2019-03-15T10:45:14.347Z,6.30
2019-03-15T10:46:14.427Z,4.10
2019-03-15T10:47:14.610Z,4.60
2019-03-15T10:48:24.529Z,4.80
2019-03-15T10:49:14.759Z,5.30
2019-03-15T10:50:14.806Z,3.40
2019-03-15T10:51:14.902Z,6.00
2019-03-15T10:52:15.117Z,6.10
2019-03-15T10:53:15.144Z,5.90
2019-03-15T10:54:15.232Z,7.40
2019-03-15T10:55:15.339Z,5.70
2019-03-15T10:56:15.422Z,6.30
2019-03-15T10:57:15.514Z,3.60
2019-03-15T10:58:15.607Z,4.60
2019-03-15T10:59:15.701Z,4.60
2019-03-15T11:00:15.788Z,2.90
2019-03-15T11:01:15.880Z,4.50
2019-03-15T11:02:15.969Z,6.60
2019-03-15T11:03:16.061Z,6.20
2019-03-15T11:04:16.154Z,5.90
2019-03-15T11:05:16.340Z,4.50
2019-03-15T11:06:16.337Z,4.30
2019-03-15T11:07:16.429Z,3.40
2019-03-15T11:08:16.521Z,3.30
2019-03-15T11:09:16.611Z,4.70
2019-03-15T11:10:16.704Z,3.90
2019-03-15T11:11:16.824Z,3.80
2019-03-15T11:12:16.982Z,3.40
2019-03-15T11:13:17.013Z,5.40
2019-03-15T11:14:17.103Z,2.70
2019-03-15T11:15:17.287Z,6.10
2019-03-15T11:16:17.283Z,3.20
2019-03-15T11:17:17.391Z,4.70
2019-03-15T11:18:17.463Z,3.30
2019-03-15T11:19:17.554Z,3.50
2019-03-15T11:20:17.645Z,3.50
2019-03-15T11:21:17.732Z,3.00
2019-03-15T11:22:17.820Z,3.90
2019-03-15T11:23:17.911Z,4.80
2019-03-15T11:24:18.008Z,4.60
2019-03-15T11:25:18.107Z,4.20
2019-03-15T11:26:18.195Z,3.90
2019-03-15T11:27:18.282Z,4.20
2019-03-15T11:28:18.377Z,5.50
2019-03-15T11:29:18.469Z,4.20
2019-03-15T11:30:18.570Z,4.40
2019-03-15T11:31:18.686Z,4.10
2019-03-15T11:32:18.856Z,4.10
2019-03-15T11:33:18.882Z,3.40
2019-03-15T11:34:19.053Z,3.30
2019-03-15T11:35:21.285Z,3.10
2019-03-15T11:36:19.151Z,5.80
2019-03-15T11:37:19.241Z,4.20
2019-03-15T11:38:19.334Z,2.90
2019-03-15T11:39:19.425Z,2.60
2019-03-15T11:40:19.719Z,3.50
2019-03-15T11:41:19.609Z,5.40
2019-03-15T11:42:19.704Z,3.20
2019-03-15T11:43:19.798Z,2.20
2019-03-15T11:44:19.891Z,4.50
2019-03-15T11:45:19.974Z,3.10
2019-03-15T11:46:20.092Z,4.00
2019-03-15T11:47:20.176Z,4.80
2019-03-15T11:48:20.237Z,3.20
2019-03-15T11:49:20.333Z,5.20
2019-03-15T11:50:20.420Z,2.30
2019-03-15T11:51:20.511Z,4.40
2019-03-15T11:52:20.616Z,4.20
2019-03-15T11:53:20.704Z,3.10
2019-03-15T11:54:20.986Z,1.80
2019-03-15T11:55:20.904Z,3.30
2019-03-15T11:56:26.852Z,2.10
2019-03-15T11:57:21.073Z,3.10
2019-03-15T11:58:21.167Z,1.90
2019-03-15T11:59:21.258Z,2.30
2019-03-15T12:00:21.356Z,3.50
2019-03-15T12:01:21.449Z,2.00
2019-03-15T12:02:21.542Z,2.50
2019-03-15T12:03:21.637Z,3.20
2019-03-15T12:04:21.725Z,2.80
2019-03-15T12:05:21.818Z,3.30
2019-03-15T12:06:21.907Z,2.10
2019-03-15T12:07:22.004Z,2.10
2019-03-15T12:08:22.098Z,2.20
2019-03-15T12:09:22.191Z,2.70
2019-03-15T12:10:22.289Z,1.80
2019-03-15T12:11:22.380Z,1.80
2019-03-15T12:12:22.471Z,1.70
2019-03-15T12:13:22.563Z,2.50
2019-03-15T12:14:22.658Z,2.10
2019-03-15T12:15:22.777Z,2.50
2019-03-15T12:16:22.887Z,3.90
2019-03-15T12:17:23.040Z,2.00
2019-03-15T12:18:23.020Z,3.50
2019-03-15T12:19:23.130Z,2.30
2019-03-15T12:20:23.202Z,2.30
2019-03-15T12:21:23.293Z,3.20
2019-03-15T12:22:23.381Z,4.80
2019-03-15T12:23:23.476Z,4.00
2019-03-15T12:24:23.565Z,3.60
2019-03-15T12:25:23.658Z,2.70
2019-03-15T12:26:23.752Z,2.10
2019-03-15T12:27:23.842Z,1.90
2019-03-15T12:28:23.932Z,2.10
2019-03-15T12:29:24.033Z,2.60
2019-03-15T12:30:24.132Z,3.20
2019-03-15T12:31:24.218Z,1.40
2019-03-15T12:32:24.311Z,2.90
2019-03-15T12:33:24.406Z,2.00
2019-03-15T12:34:24.495Z,3.40
2019-03-15T12:35:24.589Z,1.70
2019-03-15T12:36:24.673Z,1.60
2019-03-15T12:37:24.767Z,2.20
2019-03-15T12:38:24.854Z,2.70
2019-03-15T12:39:24.995Z,2.30
2019-03-15T12:40:25.082Z,2.40
2019-03-15T12:41:25.176Z,1.90
2019-03-15T12:42:25.264Z,1.60
2019-03-15T12:43:25.364Z,2.00
2019-03-15T12:44:25.456Z,1.50
2019-03-15T12:45:25.547Z,1.50
2019-03-15T12:46:25.640Z,2.10
2019-03-15T12:47:25.734Z,2.60
2019-03-15T12:48:25.836Z,2.70
2019-03-15T12:49:25.967Z,4.10
2019-03-15T12:50:26.024Z,4.30
2019-03-15T12:51:31.967Z,3.00
2019-03-15T12:52:26.216Z,2.00
2019-03-15T12:53:26.304Z,2.10
2019-03-15T12:54:26.396Z,1.70
2019-03-15T12:55:26.508Z,1.70
2019-03-15T12:56:26.659Z,2.50
2019-03-15T12:57:26.688Z,1.70
2019-03-15T12:58:26.793Z,2.20
2019-03-15T12:59:27.025Z,1.50
2019-03-15T13:00:27.012Z,1.40
2019-03-15T13:01:27.092Z,1.40
2019-03-15T13:02:27.210Z,1.70
2019-03-15T13:03:27.293Z,1.40
2019-03-15T13:04:27.390Z,1.70
2019-03-15T13:05:27.479Z,2.20
2019-03-15T13:06:27.571Z,1.40
2019-03-15T13:07:27.699Z,1.60
2019-03-15T13:08:27.741Z,1.30
2019-03-15T13:09:27.835Z,4.30